createdAt,value
2022-11-16T00:01:45.779Z,97663.72
2022-11-16T00:04:13.142Z,97658.75
2022-11-16T00:06:40.558Z,97669.81
2022-11-16T00:09:22.842Z,97662.59
2022-11-16T00:11:55.455Z,97666.09
2022-11-16T00:14:24.480Z,97661.16
2022-11-16T00:16:51.851Z,97664.41
2022-11-16T00:19:18.805Z,97656.84
2022-11-16T00:21:46.026Z,97656.84
2022-11-16T00:24:14.869Z,97651.19
2022-11-16T00:26:42.131Z,97643.47
2022-11-16T00:29:17.752Z,97648.56
2022-11-16T00:31:45.922Z,97645.13
2022-11-16T00:34:13.001Z,97647.16
2022-11-16T00:36:39.914Z,97639.41
2022-11-16T00:39:06.876Z,97636.38
2022-11-16T00:41:33.737Z,97638.34
2022-11-16T00:44:00.719Z,97629.63
2022-11-16T00:46:27.763Z,97632.69
2022-11-16T00:48:54.734Z,97623.94
2022-11-16T00:51:21.627Z,97623.66
2022-11-16T00:53:48.738Z,97631.97
2022-11-16T00:56:15.855Z,97616.72
2022-11-16T00:58:44.159Z,97625.88
2022-11-16T01:01:11.953Z,97621.22
2022-11-16T01:03:39.077Z,97615.31
2022-11-16T01:06:08.924Z,97615.66
2022-11-16T01:08:38.492Z,97616.00
2022-11-16T01:11:32.930Z,97609.88
2022-11-16T01:14:03.375Z,97600.31
2022-11-16T01:16:30.785Z,97605.81
2022-11-16T01:18:57.744Z,97599.75
2022-11-16T01:21:25.713Z,97597.69
2022-11-16T01:23:52.948Z,97582.88
2022-11-16T01:26:20.112Z,97584.94
2022-11-16T01:28:47.402Z,97583.84
2022-11-16T01:31:14.368Z,97579.72
2022-11-16T01:33:42.259Z,97581.72
2022-11-16T01:36:17.544Z,97580.25
2022-11-16T01:38:47.146Z,97578.47
2022-11-16T01:41:23.584Z,97579.94
2022-11-16T01:44:26.598Z,97575.94
2022-11-16T01:46:57.153Z,97573.00
2022-11-16T01:49:27.902Z,97567.59
2022-11-16T01:52:01.487Z,97559.84
2022-11-16T01:54:33.016Z,97561.50
2022-11-16T01:57:07.304Z,97553.13
2022-11-16T01:59:41.646Z,97551.13
2022-11-16T02:02:15.249Z,97557.03
2022-11-16T02:04:43.783Z,97559.03
2022-11-16T02:07:21.000Z,97539.84
2022-11-16T02:10:12.767Z,97559.13
2022-11-16T02:13:00.377Z,97551.63
2022-11-16T02:15:45.095Z,97553.28
2022-11-16T02:18:42.855Z,97543.44
2022-11-16T02:21:35.255Z,97537.81
2022-11-16T02:24:17.281Z,97537.78
2022-11-16T02:27:21.953Z,97531.59
2022-11-16T02:29:55.921Z,97524.56
2022-11-16T02:32:52.533Z,97519.34
2022-11-16T02:35:29.059Z,97519.06
2022-11-16T02:38:14.331Z,97505.63
2022-11-16T02:41:01.891Z,97513.84
2022-11-16T02:43:44.927Z,97507.59
2022-11-16T02:46:27.137Z,97504.31
2022-11-16T02:48:57.930Z,97493.34
2022-11-16T02:51:28.514Z,97493.72
2022-11-16T02:54:12.833Z,97499.56
2022-11-16T02:57:15.841Z,97502.53
2022-11-16T02:59:46.880Z,97500.84
2022-11-16T03:02:31.640Z,97497.44
2022-11-16T03:05:13.476Z,97499.31
2022-11-16T03:08:00.421Z,97488.72
2022-11-16T03:10:49.137Z,97477.13
2022-11-16T03:13:17.648Z,97471.41
2022-11-16T03:15:45.245Z,97471.91
2022-11-16T03:18:16.490Z,97473.00
2022-11-16T03:20:44.472Z,97469.06
2022-11-16T03:23:14.007Z,97461.63
2022-11-16T03:25:51.334Z,97466.72
2022-11-16T03:28:34.277Z,97463.91
2022-11-16T03:31:07.708Z,97469.38
2022-11-16T03:33:48.014Z,97469.31
2022-11-16T03:36:30.955Z,97450.88
2022-11-16T03:39:07.283Z,97452.09
2022-11-16T03:41:39.368Z,97453.94
2022-11-16T03:44:10.715Z,97447.00
2022-11-16T03:46:40.292Z,97447.53
2022-11-16T03:49:08.969Z,97449.00
2022-11-16T03:51:37.704Z,97433.09
2022-11-16T03:54:05.861Z,97441.75
2022-11-16T03:56:34.288Z,97426.53
2022-11-16T03:59:02.642Z,97426.72
2022-11-16T04:01:31.050Z,97423.38
2022-11-16T04:03:58.621Z,97422.00
2022-11-16T04:06:44.284Z,97427.22
2022-11-16T04:09:29.758Z,97427.22
2022-11-16T04:12:14.959Z,97431.75
2022-11-16T04:15:01.380Z,97422.31
2022-11-16T04:17:48.847Z,97421.78
2022-11-16T04:20:34.913Z,97419.94
2022-11-16T04:23:25.501Z,97423.00
2022-11-16T04:25:53.176Z,97416.44
2022-11-16T04:28:24.283Z,97421.53
2022-11-16T04:31:17.392Z,97420.94
2022-11-16T04:34:36.097Z,97410.22
2022-11-16T04:37:23.096Z,97412.63
2022-11-16T04:39:50.144Z,97416.38
2022-11-16T04:42:20.058Z,97408.34
2022-11-16T04:45:08.716Z,97409.53
2022-11-16T04:47:44.254Z,97397.25
2022-11-16T04:50:12.626Z,97397.75
2022-11-16T04:52:41.022Z,97392.72
2022-11-16T04:55:11.633Z,97396.69
2022-11-16T04:57:38.868Z,97398.66
2022-11-16T05:00:07.542Z,97390.97
2022-11-16T05:02:36.389Z,97393.94
2022-11-16T05:05:03.440Z,97396.16
2022-11-16T05:07:30.616Z,97388.59
2022-11-16T05:10:07.166Z,97397.31
2022-11-16T05:12:35.081Z,97396.91
2022-11-16T05:15:06.344Z,97386.06
2022-11-16T05:17:34.510Z,97384.38
2022-11-16T05:20:22.325Z,97387.44
2022-11-16T05:22:58.712Z,97388.91
2022-11-16T05:25:36.111Z,97385.13
2022-11-16T05:28:06.398Z,97383.28
2022-11-16T05:30:37.782Z,97378.63
2022-11-16T05:33:04.981Z,97385.81
2022-11-16T05:35:35.958Z,97381.63
2022-11-16T05:38:03.005Z,97374.63
2022-11-16T05:40:33.468Z,97370.84
2022-11-16T05:43:01.367Z,97378.81
2022-11-16T05:45:31.986Z,97376.06
2022-11-16T05:48:00.456Z,97380.66
2022-11-16T05:50:27.622Z,97368.28
2022-11-16T05:53:06.577Z,97374.75
2022-11-16T05:55:36.044Z,97375.72
2022-11-16T05:58:03.052Z,97364.84
2022-11-16T06:00:30.131Z,97368.56
2022-11-16T06:02:58.942Z,97372.81
2022-11-16T06:05:29.665Z,97367.06
2022-11-16T06:07:58.213Z,97373.28
2022-11-16T06:10:25.314Z,97363.81
2022-11-16T06:12:53.494Z,97360.38
2022-11-16T06:15:20.349Z,97354.47
2022-11-16T06:17:47.808Z,97354.72
2022-11-16T06:20:16.031Z,97355.53
2022-11-16T06:22:44.158Z,97347.63
2022-11-16T06:25:11.811Z,97350.09
2022-11-16T06:27:42.359Z,97341.66
2022-11-16T06:30:11.401Z,97328.75
2022-11-16T06:32:40.193Z,97337.41
2022-11-16T06:35:08.369Z,97339.03
2022-11-16T06:37:36.717Z,97332.00
2022-11-16T06:40:03.999Z,97320.28
2022-11-16T06:42:35.116Z,97326.75
2022-11-16T06:45:02.457Z,97326.53
2022-11-16T06:47:36.132Z,97315.16
2022-11-16T06:50:05.065Z,97314.75
2022-11-16T06:52:33.708Z,97316.56
2022-11-16T06:55:00.573Z,97318.91
2022-11-16T06:57:31.416Z,97309.97
2022-11-16T06:59:58.463Z,97304.00
2022-11-16T07:02:25.431Z,97302.56
2022-11-16T07:04:53.800Z,97300.63
2022-11-16T07:07:20.849Z,97305.69
2022-11-16T07:09:48.066Z,97299.63
2022-11-16T07:12:15.754Z,97297.34
2022-11-16T07:14:45.483Z,97302.34
2022-11-16T07:17:13.464Z,97296.25
2022-11-16T07:19:40.436Z,97313.84
2022-11-16T07:22:07.972Z,97310.41
2022-11-16T07:24:34.984Z,97304.31
2022-11-16T07:27:02.696Z,97307.88
2022-11-16T07:29:35.717Z,97289.97
2022-11-16T07:32:22.879Z,97306.34
2022-11-16T07:35:12.530Z,97287.41
2022-11-16T07:37:40.147Z,97291.16
2022-11-16T07:40:09.005Z,97288.00
2022-11-16T07:42:37.454Z,97291.59
2022-11-16T07:45:27.426Z,97288.63
2022-11-16T07:47:58.576Z,97293.38
2022-11-16T07:50:44.256Z,97281.59
2022-11-16T07:53:11.443Z,97283.03
2022-11-16T07:55:39.419Z,97282.91
2022-11-16T07:58:06.509Z,97277.16
2022-11-16T08:00:33.599Z,97279.34
2022-11-16T08:03:09.321Z,97281.16
2022-11-16T08:05:36.910Z,97281.78
2022-11-16T08:08:04.234Z,97282.31
2022-11-16T08:10:34.435Z,97276.81
2022-11-16T08:13:01.390Z,97268.22
2022-11-16T08:15:28.721Z,97273.38
2022-11-16T08:17:59.511Z,97279.31
2022-11-16T08:20:28.843Z,97271.75
2022-11-16T08:22:59.705Z,97267.66
2022-11-16T08:25:27.160Z,97273.25
2022-11-16T08:27:54.180Z,97264.38
2022-11-16T08:30:21.261Z,97268.97
2022-11-16T08:32:48.592Z,97270.75
2022-11-16T08:35:16.716Z,97255.94
2022-11-16T08:37:45.262Z,97258.47
2022-11-16T08:40:12.470Z,97253.28
2022-11-16T08:42:43.661Z,97247.44
2022-11-16T08:45:11.479Z,97261.50
2022-11-16T08:47:38.382Z,97262.22
2022-11-16T08:50:07.467Z,97258.25
2022-11-16T08:52:34.466Z,97264.25
2022-11-16T08:55:02.704Z,97263.25
2022-11-16T08:57:30.222Z,97267.78
2022-11-16T08:59:59.881Z,97253.50
2022-11-16T09:02:26.818Z,97253.00
2022-11-16T09:04:53.760Z,97257.28
2022-11-16T09:07:21.661Z,97256.03
2022-11-16T09:09:48.909Z,97258.56
2022-11-16T09:12:16.090Z,97250.13
2022-11-16T09:14:42.999Z,97248.75
2022-11-16T09:17:09.949Z,97239.88
2022-11-16T09:19:36.831Z,97239.63
2022-11-16T09:22:04.204Z,97225.78
2022-11-16T09:24:31.546Z,97226.09
2022-11-16T09:27:01.647Z,97217.97
2022-11-16T09:29:28.813Z,97218.03
2022-11-16T09:31:56.304Z,97210.94
2022-11-16T09:34:23.154Z,97216.78
2022-11-16T09:36:50.075Z,97205.38
2022-11-16T09:42:07.374Z,97210.97
2022-11-16T10:18:08.549Z,97143.28
2022-11-16T10:21:00.227Z,97144.88
2022-11-16T10:23:44.016Z,97142.03
2022-11-16T10:26:17.034Z,97144.94
2022-11-16T10:28:57.707Z,97138.59
2022-11-16T10:31:33.429Z,97135.72
2022-11-16T10:34:03.385Z,97131.59
2022-11-16T10:36:32.643Z,97135.97
2022-11-16T10:39:01.149Z,97125.03
2022-11-16T10:41:50.711Z,97119.44
2022-11-16T10:44:25.890Z,97116.56
2022-11-16T10:47:01.772Z,97113.50
2022-11-16T10:49:43.950Z,97107.63
2022-11-16T10:52:10.839Z,97113.72
2022-11-16T10:54:42.852Z,97107.25
2022-11-16T10:57:14.246Z,97101.34
2022-11-16T10:59:44.059Z,97101.03
2022-11-16T11:02:31.361Z,97101.81
2022-11-16T11:05:14.463Z,97099.25
2022-11-16T11:07:45.940Z,97099.38
2022-11-16T11:10:29.884Z,97100.41
2022-11-16T11:13:08.124Z,97100.34
2022-11-16T11:15:35.153Z,97092.81
2022-11-16T11:18:26.837Z,97085.41
2022-11-16T11:21:16.925Z,97077.13
2022-11-16T11:23:47.775Z,97076.56
2022-11-16T11:26:37.370Z,97076.72
2022-11-16T11:29:20.150Z,97076.16
2022-11-16T11:31:54.096Z,97073.72
2022-11-16T11:34:24.895Z,97080.53
2022-11-16T11:36:56.704Z,97068.69
2022-11-16T11:42:26.534Z,97061.56
2022-11-16T11:45:15.374Z,97056.53
2022-11-16T11:47:58.595Z,97061.91
2022-11-16T11:50:33.815Z,97066.13
2022-11-16T11:53:42.471Z,97063.19
2022-11-16T11:56:12.502Z,97059.38
2022-11-16T11:58:41.118Z,97054.22
2022-11-16T12:01:33.664Z,97046.78
2022-11-16T12:04:25.312Z,97043.13
2022-11-16T12:07:18.474Z,97046.00
2022-11-16T12:10:10.901Z,97048.97
2022-11-16T12:12:47.598Z,97043.97
2022-11-16T12:15:44.961Z,97049.38
2022-11-16T12:18:17.510Z,97043.59
2022-11-16T12:21:11.799Z,97033.31
2022-11-16T12:23:47.023Z,97036.22
2022-11-16T12:26:53.881Z,97032.16
2022-11-16T12:29:45.240Z,97024.00
2022-11-16T12:32:25.592Z,97020.66
2022-11-16T12:35:10.892Z,97022.22
2022-11-16T12:37:49.547Z,97023.72
2022-11-16T12:40:43.731Z,97030.47
2022-11-16T12:43:19.666Z,97028.81
2022-11-16T12:45:54.017Z,97032.06
2022-11-16T12:48:36.180Z,97025.03
2022-11-16T12:51:32.003Z,97023.81
2022-11-16T12:54:13.877Z,97022.34
2022-11-16T12:56:54.345Z,97024.94
2022-11-16T12:59:34.525Z,97021.16
2022-11-16T13:02:08.589Z,97024.13
2022-11-16T13:04:51.811Z,97018.34
2022-11-16T13:07:25.158Z,97021.84
2022-11-16T13:10:03.381Z,97021.72
2022-11-16T13:12:32.116Z,97009.06
2022-11-16T13:15:02.329Z,97009.53
2022-11-16T13:17:33.621Z,97016.03
2022-11-16T13:20:33.551Z,97008.91
2022-11-16T13:23:14.818Z,97012.31
2022-11-16T13:26:10.500Z,97012.44
2022-11-16T13:28:56.394Z,97000.63
2022-11-16T13:31:56.421Z,97006.34
2022-11-16T13:34:31.392Z,97010.50
2022-11-16T13:36:58.533Z,97007.03
2022-11-16T13:39:57.711Z,97009.69
2022-11-16T13:42:25.611Z,97007.59
2022-11-16T13:44:54.083Z,97009.47
2022-11-16T13:47:32.844Z,97013.56
2022-11-16T13:50:02.527Z,97010.72
2022-11-16T13:53:40.848Z,97015.63
2022-11-16T13:55:38.725Z,97017.06
2022-11-16T13:58:07.618Z,97011.38
2022-11-16T14:00:40.436Z,97019.94
2022-11-16T14:03:15.938Z,97015.44
2022-11-16T14:05:47.866Z,97026.59
2022-11-16T14:08:20.618Z,97012.94
2022-11-16T14:10:53.006Z,97010.91
2022-11-16T14:13:40.546Z,97018.22
2022-11-16T14:16:22.841Z,97012.72
2022-11-16T14:18:52.048Z,97012.88
2022-11-16T14:21:57.416Z,97013.66
2022-11-16T14:24:56.583Z,97016.09
2022-11-16T14:27:39.789Z,97009.16
2022-11-16T14:30:25.167Z,97008.09
2022-11-16T14:32:54.736Z,97004.00
2022-11-16T14:35:27.642Z,97005.75
2022-11-16T14:38:05.013Z,97015.59
2022-11-16T14:40:41.938Z,97007.56
2022-11-16T14:43:18.354Z,97013.69
2022-11-16T14:45:52.337Z,97008.34
2022-11-16T14:48:21.458Z,97008.56
2022-11-16T14:51:11.154Z,97008.94
2022-11-16T14:53:42.494Z,97007.78
2022-11-16T14:56:14.970Z,97009.94
2022-11-16T14:59:16.499Z,97008.38
2022-11-16T15:01:43.455Z,97008.25
2022-11-16T15:04:12.256Z,97011.13
2022-11-16T15:07:01.704Z,97017.22
2022-11-16T15:09:33.226Z,97020.44
2022-11-16T15:12:27.029Z,97022.34
2022-11-16T15:14:56.362Z,97029.88
2022-11-16T15:17:31.763Z,97024.41
2022-11-16T15:20:20.644Z,97029.59
2022-11-16T15:22:51.893Z,97027.97
2022-11-16T15:25:32.291Z,97037.06
2022-11-16T15:28:04.555Z,97035.16
2022-11-16T15:30:34.508Z,97041.88
2022-11-16T15:33:04.488Z,97036.88
2022-11-16T15:35:34.661Z,97041.22
2022-11-16T15:38:32.995Z,97042.91
2022-11-16T15:41:04.822Z,97041.34
2022-11-16T15:43:44.774Z,97045.97
2022-11-16T15:46:17.958Z,97036.56
2022-11-16T15:48:46.044Z,97044.44
2022-11-16T15:51:20.176Z,97039.66
2022-11-16T15:53:49.308Z,97043.25
2022-11-16T15:56:16.117Z,97043.75
2022-11-16T15:58:43.727Z,97046.34
2022-11-16T16:01:12.642Z,97045.38
2022-11-16T16:03:50.381Z,97045.06
2022-11-16T16:06:46.039Z,97047.88
2022-11-16T16:09:27.866Z,97048.13
2022-11-16T16:12:10.968Z,97045.84
2022-11-16T16:14:38.316Z,97034.03
2022-11-16T16:17:05.263Z,97039.97
2022-11-16T16:19:45.351Z,97050.19
2022-11-16T16:22:28.385Z,97045.75
2022-11-16T16:24:55.665Z,97042.22
2022-11-16T16:27:24.976Z,97034.34
2022-11-16T16:29:53.892Z,97040.38
2022-11-16T16:32:28.059Z,97035.22
2022-11-16T16:34:57.175Z,97036.25
2022-11-16T16:37:26.536Z,97026.81
2022-11-16T16:39:53.446Z,97031.16
2022-11-16T16:42:20.376Z,97031.44
2022-11-16T16:44:48.071Z,97028.47
2022-11-16T16:47:16.723Z,97031.34
2022-11-16T16:49:43.766Z,97029.50
2022-11-16T16:52:13.904Z,97032.16
2022-11-16T16:54:41.217Z,97024.38
2022-11-16T16:57:13.944Z,97021.69
2022-11-16T16:59:40.857Z,97020.69
2022-11-16T17:02:11.779Z,97021.75
2022-11-16T17:04:38.759Z,97018.25
2022-11-16T17:07:06.059Z,97016.53
2022-11-16T17:09:32.963Z,97020.13
2022-11-16T17:11:59.875Z,97019.94
2022-11-16T17:14:26.816Z,97010.75
2022-11-16T17:16:53.826Z,97009.06
2022-11-16T17:19:23.220Z,97010.44
2022-11-16T17:21:51.683Z,97016.03
2022-11-16T17:24:18.655Z,97021.75
2022-11-16T17:26:48.492Z,97023.09
2022-11-16T17:29:15.403Z,97015.03
2022-11-16T17:31:44.225Z,97016.81
2022-11-16T17:34:13.829Z,97013.38
2022-11-16T17:36:42.228Z,97016.22
2022-11-16T17:39:09.534Z,97012.06
2022-11-16T17:41:37.237Z,97005.69
2022-11-16T17:44:04.807Z,97000.56
2022-11-16T17:46:31.635Z,96998.50
2022-11-16T17:48:58.706Z,97001.50
2022-11-16T17:51:26.122Z,96991.38
2022-11-16T17:53:53.074Z,97003.41
2022-11-16T17:56:22.306Z,96996.06
2022-11-16T17:58:52.670Z,96991.75
2022-11-16T18:01:19.612Z,96989.38
2022-11-16T18:03:46.629Z,96986.75
2022-11-16T18:06:21.829Z,96993.38
2022-11-16T18:08:49.303Z,96998.88
2022-11-16T18:11:24.705Z,96998.63
2022-11-16T18:14:00.683Z,96992.38
2022-11-16T18:16:32.705Z,96992.56
2022-11-16T18:19:02.197Z,96990.13
2022-11-16T18:21:29.529Z,96982.06
2022-11-16T18:23:59.195Z,96985.44
2022-11-16T18:26:26.167Z,96981.75
2022-11-16T18:28:53.968Z,96985.81
2022-11-16T18:31:22.818Z,96987.78
2022-11-16T18:33:49.948Z,96974.38
2022-11-16T18:36:19.242Z,96965.22
2022-11-16T18:38:46.893Z,96969.06
2022-11-16T18:41:13.730Z,96967.03
2022-11-16T18:43:58.999Z,96967.69
2022-11-16T18:46:28.036Z,96966.97
2022-11-16T18:48:56.141Z,96973.34
2022-11-16T18:51:24.665Z,96979.81
2022-11-16T18:53:51.927Z,96980.81
2022-11-16T18:56:19.463Z,96985.19
2022-11-16T18:58:51.431Z,96988.72
2022-11-16T19:01:22.212Z,96994.16
2022-11-16T19:03:50.347Z,96984.44
2022-11-16T19:06:18.193Z,96989.56
2022-11-16T19:08:50.390Z,96987.91
2022-11-16T19:11:21.689Z,96974.13
2022-11-16T19:13:56.160Z,96980.53
2022-11-16T19:16:24.750Z,96974.94
2022-11-16T19:18:52.118Z,96982.25
2022-11-16T19:21:19.867Z,96985.38
2022-11-16T19:23:49.083Z,96987.31
2022-11-16T19:26:17.786Z,96989.16
2022-11-16T19:28:49.101Z,96997.59
2022-11-16T19:31:24.377Z,96990.94
2022-11-16T19:34:02.444Z,96991.94
2022-11-16T19:36:30.893Z,96987.31
2022-11-16T19:38:58.331Z,96985.81
2022-11-16T19:41:27.296Z,96979.88
2022-11-16T19:43:59.161Z,96980.47
2022-11-16T19:46:34.087Z,96978.72
2022-11-16T19:49:01.357Z,96973.53
2022-11-16T19:51:30.736Z,96963.91
2022-11-16T19:54:00.119Z,96971.97
2022-11-16T19:56:27.066Z,96965.56
2022-11-16T19:58:53.989Z,96970.84
2022-11-16T20:01:28.028Z,96970.50
2022-11-16T20:03:59.269Z,96981.19
2022-11-16T20:06:29.328Z,96983.28
2022-11-16T20:09:00.995Z,96978.69
2022-11-16T20:11:34.166Z,96985.50
2022-11-16T20:14:03.195Z,96974.84
2022-11-16T20:16:37.140Z,96971.56
2022-11-16T20:19:07.428Z,96970.56
2022-11-16T20:21:37.058Z,96967.75
2022-11-16T20:24:07.063Z,96963.75
2022-11-16T20:26:35.929Z,96970.06
2022-11-16T20:29:03.498Z,96971.56
2022-11-16T20:31:32.242Z,96972.50
2022-11-16T20:34:03.575Z,96968.38
2022-11-16T20:36:32.447Z,96956.25
2022-11-16T20:39:00.929Z,96958.69
2022-11-16T20:41:32.823Z,96959.81
2022-11-16T20:44:01.339Z,96955.94
2022-11-16T20:46:31.058Z,96950.81
2022-11-16T20:49:00.511Z,96950.19
2022-11-16T20:51:28.930Z,96944.25
2022-11-16T20:53:55.888Z,96945.88
2022-11-16T20:56:22.863Z,96941.00
2022-11-16T20:58:50.171Z,96938.63
2022-11-16T21:01:19.878Z,96938.63
2022-11-16T21:03:47.170Z,96941.84
2022-11-16T21:06:14.893Z,96938.28
2022-11-16T21:08:42.080Z,96932.09
2022-11-16T21:11:14.160Z,96935.00
2022-11-16T21:13:59.839Z,96935.19
2022-11-16T21:16:26.825Z,96934.66
2022-11-16T21:18:54.662Z,96937.56
2022-11-16T21:21:21.732Z,96939.41
2022-11-16T21:23:51.952Z,96945.91
2022-11-16T21:26:21.699Z,96938.00
2022-11-16T21:28:48.762Z,96924.56
2022-11-16T21:31:18.487Z,96926.66
2022-11-16T21:33:46.108Z,96921.63
2022-11-16T21:36:20.364Z,96922.84
2022-11-16T21:38:47.957Z,96923.78
2022-11-16T21:41:16.335Z,96921.81
2022-11-16T21:43:44.355Z,96915.84
2022-11-16T21:46:16.478Z,96917.41
2022-11-16T21:48:43.964Z,96914.97
2022-11-16T21:51:13.256Z,96919.59
2022-11-16T21:53:40.923Z,96920.13
2022-11-16T21:56:12.759Z,96917.41
2022-11-16T21:58:40.565Z,96910.91
2022-11-16T22:01:07.973Z,96910.13
2022-11-16T22:03:35.163Z,96911.72
2022-11-16T22:06:24.287Z,96904.75
2022-11-16T22:08:51.323Z,96902.34
2022-11-16T22:11:22.268Z,96911.06
2022-11-16T22:13:50.470Z,96902.59
2022-11-16T22:16:19.665Z,96902.41
2022-11-16T22:18:46.709Z,96901.41
2022-11-16T22:21:13.614Z,96901.91
2022-11-16T22:23:40.887Z,96891.72
2022-11-16T22:26:11.280Z,96893.75
2022-11-16T22:28:38.328Z,96890.00
2022-11-16T22:31:15.279Z,96888.78
2022-11-16T22:33:42.466Z,96892.06
2022-11-16T22:36:10.685Z,96896.78
2022-11-16T22:38:38.040Z,96890.88
2022-11-16T22:41:05.300Z,96890.41
2022-11-16T22:43:33.016Z,96885.34
2022-11-16T22:46:05.575Z,96882.28
2022-11-16T22:48:38.012Z,96887.38
2022-11-16T22:51:12.087Z,96879.75
2022-11-16T22:53:39.229Z,96881.91
2022-11-16T22:56:08.186Z,96880.09
2022-11-16T22:58:36.905Z,96873.44
2022-11-16T23:01:05.139Z,96863.91
2022-11-16T23:03:32.159Z,96864.84
2022-11-16T23:05:59.864Z,96866.50
2022-11-16T23:08:27.722Z,96863.47
2022-11-16T23:11:17.237Z,96854.00
2022-11-16T23:14:03.214Z,96850.03
2022-11-16T23:16:30.146Z,96847.03
2022-11-16T23:18:57.254Z,96852.47
2022-11-16T23:21:42.902Z,96844.06
2022-11-16T23:24:32.782Z,96851.84
2022-11-16T23:27:20.933Z,96846.59
2022-11-16T23:29:48.091Z,96844.00
2022-11-16T23:32:14.982Z,96842.97
2022-11-16T23:34:41.815Z,96843.25
2022-11-16T23:37:08.689Z,96834.41
2022-11-16T23:39:35.595Z,96840.66
2022-11-16T23:42:20.738Z,96836.88
2022-11-16T23:44:47.693Z,96843.13
2022-11-16T23:47:14.558Z,96840.97
2022-11-16T23:49:41.755Z,96830.75
2022-11-16T23:52:08.884Z,96836.41
2022-11-16T23:54:35.864Z,96837.09
2022-11-16T23:57:02.849Z,96831.13
2022-11-16T23:59:29.695Z,96826.06
